createdAt,value
2023-04-26T00:01:28.434Z,50.12
2023-04-26T00:04:30.883Z,50.16
2023-04-26T00:07:33.415Z,50.07
2023-04-26T00:10:35.185Z,49.94
2023-04-26T00:13:37.841Z,50.02
2023-04-26T00:16:39.747Z,49.88
2023-04-26T00:19:41.586Z,49.97
2023-04-26T00:22:44.018Z,49.90
2023-04-26T00:25:45.714Z,49.97
2023-04-26T00:28:47.472Z,49.84
2023-04-26T00:31:49.335Z,49.74
2023-04-26T00:34:51.122Z,49.54
2023-04-26T00:37:52.842Z,49.41
2023-04-26T00:40:54.787Z,49.22
2023-04-26T00:43:56.515Z,49.23
2023-04-26T00:46:58.220Z,49.01
2023-04-26T00:50:01.310Z,48.96
2023-04-26T00:53:03.566Z,48.87
2023-04-26T00:56:09.191Z,48.76
2023-04-26T00:59:11.088Z,48.66
2023-04-26T01:02:13.177Z,48.61
2023-04-26T01:05:15.040Z,48.58
2023-04-26T01:08:20.440Z,48.49
2023-04-26T01:11:22.770Z,48.49
2023-04-26T01:14:24.681Z,48.47
2023-04-26T01:17:26.407Z,48.33
2023-04-26T01:20:28.404Z,48.30
2023-04-26T01:23:30.474Z,48.38
2023-04-26T01:26:33.793Z,48.35
2023-04-26T01:29:35.811Z,48.37
2023-04-26T01:32:39.095Z,48.36
2023-04-26T01:35:41.531Z,48.35
2023-04-26T01:38:43.381Z,48.42
2023-04-26T01:41:45.156Z,48.38
2023-04-26T01:44:46.853Z,48.34
2023-04-26T01:47:48.646Z,48.39
2023-04-26T01:50:50.405Z,48.39
2023-04-26T01:53:52.255Z,48.28
2023-04-26T01:56:53.958Z,48.35
2023-04-26T01:59:56.204Z,48.30
2023-04-26T02:02:58.026Z,48.32
2023-04-26T02:06:00.073Z,48.36
2023-04-26T02:09:05.336Z,48.41
2023-04-26T02:12:07.140Z,48.44
2023-04-26T02:15:09.132Z,48.44
2023-04-26T02:18:11.023Z,48.47
2023-04-26T02:21:12.811Z,48.44
2023-04-26T02:24:14.510Z,48.48
2023-04-26T02:27:16.176Z,48.37
2023-04-26T02:30:18.003Z,48.44
2023-04-26T02:33:19.712Z,48.39
2023-04-26T02:36:21.646Z,48.42
2023-04-26T02:39:23.887Z,48.41
2023-04-26T02:42:25.646Z,48.48
2023-04-26T02:45:27.384Z,48.49
2023-04-26T02:48:29.169Z,48.45
2023-04-26T02:51:32.922Z,48.51
2023-04-26T02:54:35.056Z,48.54
2023-04-26T02:57:36.743Z,48.57
2023-04-26T03:00:46.593Z,48.68
2023-04-26T03:03:48.709Z,48.79
2023-04-26T03:06:50.433Z,48.75
2023-04-26T03:09:52.169Z,48.87
2023-04-26T03:12:53.965Z,48.97
2023-04-26T03:15:55.833Z,49.03
2023-04-26T03:18:57.627Z,49.08
2023-04-26T03:21:59.457Z,49.13
2023-04-26T03:25:01.473Z,49.13
2023-04-26T03:28:03.818Z,49.15
2023-04-26T03:31:05.619Z,49.14
2023-04-26T03:34:07.464Z,49.26
2023-04-26T03:37:09.296Z,49.34
2023-04-26T03:40:11.986Z,49.33
2023-04-26T03:43:13.675Z,49.40
2023-04-26T03:46:15.574Z,49.41
2023-04-26T03:49:17.387Z,49.41
2023-04-26T03:52:19.398Z,49.47
2023-04-26T03:55:21.349Z,49.52
2023-04-26T03:58:25.341Z,49.58
2023-04-26T04:01:27.124Z,49.59
2023-04-26T04:04:29.139Z,49.64
2023-04-26T04:07:32.301Z,49.65
2023-04-26T04:10:34.036Z,49.79
2023-04-26T04:13:35.872Z,49.91
2023-04-26T04:16:37.918Z,49.86
2023-04-26T04:19:39.701Z,49.95
2023-04-26T04:22:41.573Z,49.85
2023-04-26T04:25:44.869Z,49.88
2023-04-26T04:28:48.050Z,49.90
2023-04-26T04:31:50.190Z,49.95
2023-04-26T04:34:53.259Z,50.01
2023-04-26T04:37:58.300Z,49.99
2023-04-26T04:41:00.292Z,50.08
2023-04-26T04:44:03.399Z,50.07
2023-04-26T04:47:05.581Z,50.08
2023-04-26T04:50:08.727Z,50.10
2023-04-26T04:53:12.058Z,50.07
2023-04-26T04:56:15.189Z,50.11
2023-04-26T04:59:17.043Z,50.18
2023-04-26T05:02:19.521Z,50.14
2023-04-26T05:05:21.779Z,50.22
2023-04-26T05:08:23.500Z,50.13
2023-04-26T05:11:25.600Z,50.11
2023-04-26T05:14:28.739Z,49.92
2023-04-26T05:17:31.809Z,50.01
2023-04-26T05:20:36.579Z,49.95
2023-04-26T05:23:38.291Z,49.76
2023-04-26T05:26:40.262Z,49.72
2023-04-26T05:29:54.660Z,49.64
2023-04-26T05:33:19.656Z,49.46
2023-04-26T05:36:30.182Z,49.43
2023-04-26T05:39:32.186Z,49.15
2023-04-26T05:42:34.262Z,49.04
2023-04-26T05:45:36.117Z,48.93
2023-04-26T05:48:38.287Z,48.73
2023-04-26T05:51:41.879Z,48.61
2023-04-26T05:54:43.524Z,48.54
2023-04-26T05:57:45.350Z,48.15
2023-04-26T06:00:47.187Z,48.19
2023-04-26T06:03:49.797Z,48.00
2023-04-26T06:06:53.507Z,47.97
2023-04-26T06:09:56.156Z,47.96
2023-04-26T06:12:58.038Z,47.85
2023-04-26T06:16:00.461Z,47.82
2023-04-26T06:19:02.262Z,47.74
2023-04-26T06:22:04.199Z,47.52
2023-04-26T06:25:07.277Z,47.40
2023-04-26T06:28:13.818Z,47.21
2023-04-26T06:31:15.700Z,47.12
2023-04-26T06:34:17.547Z,46.95
2023-04-26T06:37:19.256Z,47.02
2023-04-26T06:40:21.470Z,47.11
2023-04-26T06:43:23.258Z,46.82
2023-04-26T06:46:37.652Z,46.92
2023-04-26T06:49:39.436Z,46.77
2023-04-26T06:52:41.104Z,46.59
2023-04-26T06:55:42.773Z,46.63
2023-04-26T06:59:01.232Z,46.39
2023-04-26T07:02:03.321Z,46.05
2023-04-26T07:05:05.523Z,45.90
2023-04-26T07:08:07.764Z,45.62
2023-04-26T07:11:10.839Z,45.38
2023-04-26T07:14:12.594Z,45.28
2023-04-26T07:17:14.371Z,45.34
2023-04-26T07:20:19.229Z,45.23
2023-04-26T07:23:20.941Z,45.19
2023-04-26T07:26:23.891Z,45.40
2023-04-26T07:29:25.661Z,45.31
2023-04-26T07:32:27.547Z,45.35
2023-04-26T07:35:29.396Z,45.24
2023-04-26T07:38:31.163Z,45.25
2023-04-26T07:41:32.857Z,45.18
2023-04-26T07:44:34.524Z,45.09
2023-04-26T07:47:36.793Z,44.99
2023-04-26T07:50:38.595Z,44.70
2023-04-26T07:53:40.719Z,44.80
2023-04-26T07:56:42.412Z,44.82
2023-04-26T07:59:44.097Z,44.66
2023-04-26T08:02:48.810Z,44.51
2023-04-26T08:05:51.162Z,44.43
2023-04-26T08:08:53.348Z,43.97
2023-04-26T08:11:55.108Z,44.34
2023-04-26T08:14:56.881Z,43.95
2023-04-26T08:17:58.825Z,43.84
2023-04-26T08:21:00.833Z,43.41
2023-04-26T08:24:03.124Z,42.70
2023-04-26T08:27:05.672Z,42.77
2023-04-26T08:30:07.768Z,42.76
2023-04-26T08:33:09.882Z,42.34
2023-04-26T08:36:12.205Z,42.13
2023-04-26T08:39:13.905Z,42.02
2023-04-26T08:42:16.967Z,42.24
2023-04-26T08:45:20.896Z,42.18
2023-04-26T08:48:22.703Z,42.02
2023-04-26T08:51:25.353Z,42.16
2023-04-26T08:54:27.826Z,41.94
2023-04-26T08:57:31.999Z,41.75
2023-04-26T09:00:36.572Z,41.97
2023-04-26T09:03:38.490Z,43.96
2023-04-26T09:06:41.016Z,43.07
2023-04-26T09:09:44.187Z,42.73
2023-04-26T09:12:46.190Z,42.49
2023-04-26T09:15:48.277Z,42.16
2023-04-26T09:18:54.825Z,42.28
2023-04-26T09:21:56.943Z,42.22
2023-04-26T09:24:59.245Z,41.46
2023-04-26T09:28:17.991Z,40.79
2023-04-26T09:31:42.810Z,40.57
2023-04-26T09:34:48.354Z,40.30
2023-04-26T09:38:13.244Z,40.13
2023-04-26T09:41:16.250Z,40.43
2023-04-26T09:44:25.271Z,40.85
2023-04-26T09:47:27.120Z,41.19
2023-04-26T09:50:30.899Z,41.52
2023-04-26T09:53:47.124Z,41.55
2023-04-26T09:57:02.144Z,41.49
2023-04-26T10:00:11.445Z,40.74
2023-04-26T10:03:13.674Z,40.02
2023-04-26T10:06:15.959Z,40.03
2023-04-26T10:09:17.902Z,39.87
2023-04-26T10:12:20.289Z,40.00
2023-04-26T10:15:22.257Z,39.96
2023-04-26T10:18:24.008Z,40.18
2023-04-26T10:21:34.753Z,40.37
2023-04-26T10:24:36.885Z,40.15
2023-04-26T10:27:44.877Z,39.53
2023-04-26T10:30:57.566Z,39.43
2023-04-26T10:34:19.321Z,39.49
2023-04-26T10:37:21.279Z,39.38
2023-04-26T10:40:25.123Z,39.36
2023-04-26T10:43:27.645Z,38.64
2023-04-26T10:46:35.914Z,38.00
2023-04-26T10:49:47.842Z,37.66
2023-04-26T10:53:02.936Z,37.37
2023-04-26T10:56:04.898Z,37.57
2023-04-26T10:59:22.542Z,37.49
2023-04-26T11:03:05.799Z,37.41
2023-04-26T11:06:09.372Z,37.25
2023-04-26T11:09:36.934Z,37.30
2023-04-26T11:12:41.544Z,37.61
2023-04-26T11:15:43.460Z,38.04
2023-04-26T11:18:46.633Z,38.20
2023-04-26T11:21:48.668Z,38.69
2023-04-26T11:24:50.933Z,38.72
2023-04-26T11:27:56.247Z,38.24
2023-04-26T11:30:59.077Z,37.81
2023-04-26T11:34:04.302Z,37.17
2023-04-26T11:37:06.674Z,36.94
2023-04-26T11:40:11.242Z,36.87
2023-04-26T11:43:13.411Z,36.72
2023-04-26T11:46:16.161Z,36.84
2023-04-26T11:49:18.175Z,36.68
2023-04-26T11:52:20.096Z,36.56
2023-04-26T11:55:28.025Z,36.48
2023-04-26T11:58:29.840Z,36.23
2023-04-26T12:01:32.104Z,36.00
2023-04-26T12:04:34.205Z,35.81
2023-04-26T12:07:37.346Z,35.76
2023-04-26T12:10:39.190Z,35.88
2023-04-26T12:13:40.959Z,35.83
2023-04-26T12:16:42.916Z,35.73
2023-04-26T12:19:50.727Z,35.84
2023-04-26T12:23:19.168Z,35.77
2023-04-26T12:26:21.407Z,36.03
2023-04-26T12:29:29.868Z,35.86
2023-04-26T12:32:31.762Z,35.38
2023-04-26T12:35:34.200Z,35.44
2023-04-26T12:38:36.655Z,35.41
2023-04-26T12:41:40.127Z,35.34
2023-04-26T12:44:41.934Z,35.22
2023-04-26T12:47:45.320Z,35.30
2023-04-26T12:50:47.120Z,35.27
2023-04-26T12:53:50.238Z,35.64
2023-04-26T12:56:52.115Z,35.87
2023-04-26T12:59:54.062Z,36.14
2023-04-26T13:02:55.924Z,35.91
2023-04-26T13:05:57.830Z,35.90
2023-04-26T13:08:59.617Z,35.98
2023-04-26T13:12:01.456Z,36.24
2023-04-26T13:15:03.770Z,36.49
2023-04-26T13:18:05.985Z,36.61
2023-04-26T13:21:07.979Z,36.55
2023-04-26T13:24:10.092Z,36.07
2023-04-26T13:27:12.618Z,35.79
2023-04-26T13:30:14.394Z,35.88
2023-04-26T13:33:16.178Z,35.93
2023-04-26T13:36:18.194Z,35.97
2023-04-26T13:39:19.956Z,36.34
2023-04-26T13:42:21.793Z,36.49
2023-04-26T13:45:23.492Z,36.82
2023-04-26T13:48:25.240Z,36.79
2023-04-26T13:51:29.895Z,36.65
2023-04-26T13:54:31.680Z,36.54
2023-04-26T13:57:33.415Z,36.57
2023-04-26T14:00:35.667Z,36.27
2023-04-26T14:03:37.374Z,36.32
2023-04-26T14:06:39.265Z,36.34
2023-04-26T14:09:41.016Z,36.82
2023-04-26T14:12:42.846Z,37.21
2023-04-26T14:15:44.749Z,37.38
2023-04-26T14:18:47.192Z,37.76
2023-04-26T14:21:48.922Z,37.87
2023-04-26T14:24:50.626Z,37.69
2023-04-26T14:27:53.868Z,37.38
2023-04-26T14:30:55.753Z,37.32
2023-04-26T14:33:57.840Z,37.44
2023-04-26T14:37:01.007Z,37.39
2023-04-26T14:40:04.035Z,37.26
2023-04-26T14:43:05.766Z,37.44
2023-04-26T14:46:07.527Z,37.40
2023-04-26T14:49:09.402Z,37.29
2023-04-26T14:52:11.115Z,37.36
2023-04-26T14:55:19.601Z,37.34
2023-04-26T14:58:22.354Z,37.08
2023-04-26T15:01:24.348Z,37.06
2023-04-26T15:04:26.173Z,36.88
2023-04-26T15:07:32.136Z,36.62
2023-04-26T15:10:35.467Z,36.46
2023-04-26T15:13:37.147Z,36.39
2023-04-26T15:16:38.953Z,36.30
2023-04-26T15:19:41.002Z,36.31
2023-04-26T15:22:42.763Z,36.43
2023-04-26T15:25:44.393Z,36.66
2023-04-26T15:28:46.061Z,36.74
2023-04-26T15:31:48.031Z,36.81
2023-04-26T15:34:49.856Z,37.23
2023-04-26T15:37:53.272Z,37.19
2023-04-26T15:40:55.194Z,37.34
2023-04-26T15:43:56.947Z,37.72
2023-04-26T15:47:00.775Z,37.81
2023-04-26T15:50:05.963Z,38.14
2023-04-26T15:53:07.701Z,38.48
2023-04-26T15:56:18.899Z,38.62
2023-04-26T15:59:21.011Z,38.62
2023-04-26T16:02:22.777Z,38.78
2023-04-26T16:05:24.584Z,38.74
2023-04-26T16:08:39.577Z,38.74
2023-04-26T16:11:42.211Z,38.78
2023-04-26T16:14:43.920Z,38.72
2023-04-26T16:17:45.720Z,38.71
2023-04-26T16:20:48.117Z,38.82
2023-04-26T16:23:51.263Z,38.88
2023-04-26T16:26:53.003Z,39.03
2023-04-26T16:29:54.809Z,39.00
2023-04-26T16:32:56.553Z,39.08
2023-04-26T16:35:58.564Z,38.96
2023-04-26T16:39:00.426Z,39.18
2023-04-26T16:42:02.811Z,39.32
2023-04-26T16:45:05.139Z,39.38
2023-04-26T16:48:06.893Z,39.53
2023-04-26T16:51:08.839Z,39.60
2023-04-26T16:54:11.476Z,39.61
2023-04-26T16:57:13.650Z,39.76
2023-04-26T17:00:15.763Z,39.70
2023-04-26T17:03:18.184Z,39.79
2023-04-26T17:06:20.570Z,39.88
2023-04-26T17:09:22.261Z,39.89
2023-04-26T17:12:24.122Z,40.03
2023-04-26T17:15:30.011Z,40.14
2023-04-26T17:18:36.030Z,40.14
2023-04-26T17:21:38.423Z,40.04
2023-04-26T17:24:40.131Z,39.99
2023-04-26T17:27:41.883Z,39.85
2023-04-26T17:30:46.687Z,39.95
2023-04-26T17:33:49.730Z,39.90
2023-04-26T17:36:52.475Z,40.00
2023-04-26T17:39:54.444Z,39.95
2023-04-26T17:42:56.339Z,39.97
2023-04-26T17:45:58.453Z,40.17
2023-04-26T17:49:00.523Z,40.27
2023-04-26T17:52:02.750Z,40.56
2023-04-26T17:55:07.512Z,40.52
2023-04-26T17:58:10.491Z,40.58
2023-04-26T18:01:12.261Z,40.65
2023-04-26T18:04:17.366Z,40.71
2023-04-26T18:07:19.166Z,40.80
2023-04-26T18:10:23.916Z,40.75
2023-04-26T18:13:27.932Z,40.87
2023-04-26T18:16:35.183Z,40.99
2023-04-26T18:19:37.674Z,40.94
2023-04-26T18:22:42.336Z,41.01
2023-04-26T18:25:44.787Z,40.88
2023-04-26T18:28:46.577Z,40.97
2023-04-26T18:31:49.183Z,40.94
2023-04-26T18:34:51.613Z,41.36
2023-04-26T18:37:53.246Z,41.22
2023-04-26T18:40:55.182Z,41.03
2023-04-26T18:43:56.945Z,41.08
2023-04-26T18:46:58.890Z,41.09
2023-04-26T18:50:01.119Z,41.19
2023-04-26T18:53:03.252Z,41.36
2023-04-26T18:56:05.290Z,41.72
2023-04-26T18:59:07.616Z,41.88
2023-04-26T19:02:09.484Z,42.24
2023-04-26T19:05:12.535Z,42.60
2023-04-26T19:08:14.474Z,42.34
2023-04-26T19:11:16.333Z,42.39
2023-04-26T19:14:18.086Z,42.60
2023-04-26T19:17:20.169Z,42.64
2023-04-26T19:20:22.042Z,42.90
2023-04-26T19:23:23.942Z,42.99
2023-04-26T19:26:25.753Z,43.27
2023-04-26T19:29:27.561Z,43.21
2023-04-26T19:32:29.335Z,43.65
2023-04-26T19:35:31.008Z,43.72
2023-04-26T19:38:32.726Z,43.75
2023-04-26T19:41:34.423Z,43.70
2023-04-26T19:44:38.685Z,44.12
2023-04-26T19:47:41.876Z,44.41
2023-04-26T19:50:45.748Z,44.62
2023-04-26T19:53:47.400Z,44.90
2023-04-26T19:56:49.200Z,44.94
2023-04-26T19:59:50.922Z,45.02
2023-04-26T20:02:52.774Z,45.08
2023-04-26T20:05:54.608Z,45.08
2023-04-26T20:08:56.324Z,45.07
2023-04-26T20:11:58.025Z,45.02
2023-04-26T20:14:59.714Z,45.17
2023-04-26T20:18:03.367Z,45.29
2023-04-26T20:21:05.503Z,45.26
2023-04-26T20:24:07.443Z,45.31
2023-04-26T20:27:09.130Z,45.41
2023-04-26T20:30:11.522Z,45.64
2023-04-26T20:33:13.823Z,45.75
2023-04-26T20:36:15.555Z,45.94
2023-04-26T20:39:17.640Z,45.94
2023-04-26T20:42:19.331Z,46.13
2023-04-26T20:45:20.986Z,46.20
2023-04-26T20:48:23.513Z,46.50
2023-04-26T20:51:26.259Z,46.76
2023-04-26T20:54:27.976Z,46.90
2023-04-26T20:57:29.707Z,47.13
2023-04-26T21:00:31.459Z,47.05
2023-04-26T21:03:33.768Z,46.93
2023-04-26T21:06:35.656Z,46.95
2023-04-26T21:09:37.830Z,47.20
2023-04-26T21:12:41.123Z,47.18
2023-04-26T21:15:42.957Z,47.19
2023-04-26T21:18:44.720Z,47.23
2023-04-26T21:21:46.958Z,47.45
2023-04-26T21:24:51.250Z,47.63
2023-04-26T21:27:53.054Z,47.58
2023-04-26T21:31:05.452Z,47.70
2023-04-26T21:34:07.181Z,47.74
2023-04-26T21:37:10.232Z,47.75
2023-04-26T21:40:12.374Z,47.94
2023-04-26T21:43:17.035Z,48.09
2023-04-26T21:46:19.161Z,48.15
2023-04-26T21:49:20.948Z,48.10
2023-04-26T21:52:22.760Z,48.33
2023-04-26T21:55:24.547Z,48.39
2023-04-26T21:58:26.465Z,48.50
2023-04-26T22:01:28.569Z,48.63
2023-04-26T22:04:30.536Z,48.77
2023-04-26T22:07:33.175Z,48.87
2023-04-26T22:10:35.794Z,49.06
2023-04-26T22:13:37.587Z,49.32
2023-04-26T22:16:39.462Z,49.49
2023-04-26T22:19:41.409Z,49.78
2023-04-26T22:22:43.162Z,49.98
2023-04-26T22:25:44.939Z,49.94
2023-04-26T22:28:46.637Z,49.93
2023-04-26T22:31:48.329Z,49.88
2023-04-26T22:34:50.282Z,49.90
2023-04-26T22:37:52.073Z,50.10
2023-04-26T22:40:53.919Z,50.16
2023-04-26T22:43:55.758Z,50.30
2023-04-26T22:46:58.803Z,50.41
2023-04-26T22:50:00.613Z,50.38
2023-04-26T22:53:02.471Z,50.24
2023-04-26T22:56:04.466Z,50.35
2023-04-26T22:59:06.722Z,50.42
2023-04-26T23:02:08.454Z,50.55
2023-04-26T23:05:10.814Z,50.46
2023-04-26T23:08:12.544Z,50.40
2023-04-26T23:11:14.274Z,50.36
2023-04-26T23:14:16.597Z,50.41
2023-04-26T23:17:19.697Z,50.51
2023-04-26T23:20:22.195Z,50.49
2023-04-26T23:23:23.915Z,50.34
2023-04-26T23:26:25.722Z,50.38
2023-04-26T23:29:27.508Z,50.57
2023-04-26T23:32:29.375Z,50.70
2023-04-26T23:35:31.204Z,50.83
2023-04-26T23:38:32.925Z,50.84
2023-04-26T23:41:34.717Z,50.97
2023-04-26T23:44:36.413Z,50.97
2023-04-26T23:47:38.325Z,51.06
2023-04-26T23:50:40.644Z,50.98
2023-04-26T23:53:43.375Z,51.06
2023-04-26T23:56:45.173Z,51.18
2023-04-26T23:59:47.010Z,51.18
